createdAt,value
2022-10-23T00:02:18.275Z,100570.09
2022-10-23T00:05:21.852Z,100570.53
2022-10-23T00:08:24.157Z,100566.75
2022-10-23T00:11:29.032Z,100565.47
2022-10-23T00:14:31.444Z,100563.69
2022-10-23T00:17:35.141Z,100576.59
2022-10-23T00:20:37.470Z,100569.69
2022-10-23T00:23:40.721Z,100578.97
2022-10-23T00:26:43.260Z,100582.06
2022-10-23T00:29:45.641Z,100575.75
2022-10-23T00:32:48.005Z,100587.75
2022-10-23T00:35:50.325Z,100575.91
2022-10-23T00:38:52.639Z,100580.53
2022-10-23T00:41:55.276Z,100592.78
2022-10-23T00:45:18.101Z,100608.63
2022-10-23T00:48:20.657Z,100616.38
2022-10-23T00:51:23.129Z,100611.03
2022-10-23T00:54:28.011Z,100606.06
2022-10-23T00:57:30.932Z,100610.81
2022-10-23T01:00:45.464Z,100621.88
2022-10-23T01:03:48.045Z,100617.56
2022-10-23T01:07:28.769Z,100621.81
2022-10-23T01:11:09.354Z,100624.09
2022-10-23T01:14:14.858Z,100630.25
2022-10-23T01:17:25.134Z,100622.06
2022-10-23T01:20:45.477Z,100639.97
2022-10-23T01:24:11.229Z,100643.44
2022-10-23T01:27:28.011Z,100650.66
2022-10-23T01:30:30.981Z,100644.25
2022-10-23T01:33:45.248Z,100644.16
2022-10-23T01:36:49.620Z,100655.53
2022-10-23T01:39:55.251Z,100647.25
2022-10-23T01:43:03.556Z,100643.97
2022-10-23T01:46:08.725Z,100646.47
2022-10-23T01:49:14.337Z,100649.50
2022-10-23T01:52:18.505Z,100648.03
2022-10-23T01:55:24.307Z,100644.03
2022-10-23T01:58:28.343Z,100645.41
2022-10-23T02:01:31.319Z,100647.38
2022-10-23T02:04:45.701Z,100638.03
2022-10-23T02:07:48.539Z,100631.66
2022-10-23T02:11:00.001Z,100646.50
2022-10-23T02:14:16.556Z,100639.22
2022-10-23T02:17:40.761Z,100645.06
2022-10-23T02:20:46.136Z,100640.84
2022-10-23T02:24:01.328Z,100643.53
2022-10-23T02:27:10.455Z,100637.63
2022-10-23T02:30:15.412Z,100630.88
2022-10-23T02:33:22.965Z,100642.19
2022-10-23T02:36:25.210Z,100631.56
2022-10-23T02:39:28.593Z,100638.06
2022-10-23T02:42:55.998Z,100641.84
2022-10-23T02:46:14.640Z,100652.75
2022-10-23T02:49:38.602Z,100659.75
2022-10-23T02:52:55.217Z,100661.38
2022-10-23T02:56:08.652Z,100665.91
2022-10-23T02:59:12.165Z,100680.03
2022-10-23T03:02:25.904Z,100668.53
2022-10-23T03:05:32.061Z,100667.47
2022-10-23T03:08:55.241Z,100674.25
2022-10-23T03:12:00.262Z,100676.91
2022-10-23T03:15:02.600Z,100683.88
2022-10-23T03:18:04.921Z,100685.38
2022-10-23T03:21:07.852Z,100686.38
2022-10-23T03:24:10.181Z,100683.91
2022-10-23T03:27:17.328Z,100691.28
2022-10-23T03:30:20.075Z,100684.16
2022-10-23T03:33:26.341Z,100684.59
2022-10-23T03:36:28.748Z,100677.47
2022-10-23T03:39:31.093Z,100684.44
2022-10-23T03:42:33.317Z,100686.34
2022-10-23T03:45:38.493Z,100689.88
2022-10-23T03:48:42.091Z,100691.69
2022-10-23T03:51:51.873Z,100705.41
2022-10-23T03:54:56.047Z,100702.75
2022-10-23T03:57:58.531Z,100705.03
2022-10-23T04:01:00.876Z,100712.59
2022-10-23T04:04:03.254Z,100710.03
2022-10-23T04:07:05.926Z,100701.59
2022-10-23T04:10:08.825Z,100715.69
2022-10-23T04:13:11.124Z,100712.03
2022-10-23T04:16:13.573Z,100705.28
2022-10-23T04:19:17.216Z,100701.69
2022-10-23T04:22:19.485Z,100698.91
2022-10-23T04:25:21.787Z,100710.81
2022-10-23T04:28:24.290Z,100704.66
2022-10-23T04:31:26.804Z,100685.19
2022-10-23T04:34:29.098Z,100693.19
2022-10-23T04:37:31.534Z,100675.41
2022-10-23T04:40:35.321Z,100678.47
2022-10-23T04:43:38.668Z,100681.97
2022-10-23T04:46:41.054Z,100683.00
2022-10-23T04:49:44.986Z,100687.91
2022-10-23T04:52:58.403Z,100690.38
2022-10-23T04:56:19.089Z,100699.00
2022-10-23T04:59:25.605Z,100704.81
2022-10-23T05:02:28.094Z,100720.41
2022-10-23T05:05:30.761Z,100724.09
2022-10-23T05:08:51.487Z,100725.72
2022-10-23T05:12:17.080Z,100731.63
2022-10-23T05:15:19.440Z,100721.94
2022-10-23T05:18:27.730Z,100723.78
2022-10-23T05:21:31.927Z,100716.59
2022-10-23T05:24:35.118Z,100716.78
2022-10-23T05:27:39.887Z,100704.44
2022-10-23T05:30:45.864Z,100704.44
2022-10-23T05:33:48.255Z,100712.28
2022-10-23T05:36:50.699Z,100715.81
2022-10-23T05:39:53.532Z,100714.22
2022-10-23T05:42:56.477Z,100727.03
2022-10-23T05:46:10.299Z,100729.94
2022-10-23T05:49:18.602Z,100722.75
2022-10-23T05:52:48.666Z,100741.22
2022-10-23T05:56:11.314Z,100733.59
2022-10-23T05:59:36.222Z,100744.41
2022-10-23T06:02:54.238Z,100740.06
2022-10-23T06:06:10.979Z,100732.16
2022-10-23T06:09:22.453Z,100736.28
2022-10-23T06:12:29.202Z,100748.97
2022-10-23T06:15:31.582Z,100758.81
2022-10-23T06:18:42.564Z,100761.78
2022-10-23T06:21:49.357Z,100751.03
2022-10-23T06:24:52.564Z,100748.25
2022-10-23T06:27:59.904Z,100757.94
2022-10-23T06:31:07.293Z,100753.84
2022-10-23T06:34:11.737Z,100763.47
2022-10-23T06:37:14.393Z,100767.50
2022-10-23T06:40:22.471Z,100784.81
2022-10-23T06:43:32.316Z,100790.28
2022-10-23T06:47:14.408Z,100790.88
2022-10-23T06:50:38.232Z,100800.34
2022-10-23T06:53:46.496Z,100796.06
2022-10-23T06:57:08.657Z,100786.59
2022-10-23T07:00:18.490Z,100800.75
2022-10-23T07:03:25.586Z,100799.25
2022-10-23T07:06:28.332Z,100809.28
2022-10-23T07:09:30.723Z,100812.88
2022-10-23T07:12:32.915Z,100801.69
2022-10-23T07:16:12.544Z,100819.25
2022-10-23T07:19:15.740Z,100810.19
2022-10-23T07:22:41.228Z,100798.63
2022-10-23T07:25:49.404Z,100818.25
2022-10-23T07:28:56.848Z,100821.13
2022-10-23T07:32:04.560Z,100830.53
2022-10-23T07:35:42.486Z,100823.31
2022-10-23T07:38:47.929Z,100821.47
2022-10-23T07:41:50.509Z,100811.47
2022-10-23T07:44:53.693Z,100809.28
2022-10-23T07:47:56.838Z,100812.47
2022-10-23T07:51:08.573Z,100807.81
2022-10-23T07:54:15.376Z,100803.13
2022-10-23T07:57:38.299Z,100799.78
2022-10-23T08:01:00.802Z,100813.16
2022-10-23T08:04:10.732Z,100821.78
2022-10-23T08:07:20.381Z,100806.41
2022-10-23T08:10:24.500Z,100819.16
2022-10-23T08:13:27.073Z,100818.22
2022-10-23T08:16:39.607Z,100826.31
2022-10-23T08:19:46.415Z,100807.72
2022-10-23T08:22:51.407Z,100806.88
2022-10-23T08:26:02.479Z,100801.19
2022-10-23T08:29:06.790Z,100809.22
2022-10-23T08:32:09.091Z,100803.81
2022-10-23T08:35:23.365Z,100802.44
2022-10-23T08:38:26.070Z,100802.28
2022-10-23T08:41:37.657Z,100807.56
2022-10-23T08:45:18.626Z,100810.25
2022-10-23T08:48:35.387Z,100823.59
2022-10-23T08:51:59.301Z,100806.94
2022-10-23T08:55:12.266Z,100812.66
2022-10-23T08:58:34.921Z,100814.03
2022-10-23T09:01:47.035Z,100801.34
2022-10-23T09:04:51.118Z,100803.56
2022-10-23T09:08:12.811Z,100806.59
2022-10-23T09:11:16.673Z,100806.81
2022-10-23T09:14:56.337Z,100795.81
2022-10-23T09:18:08.165Z,100791.34
2022-10-23T09:21:11.166Z,100796.00
2022-10-23T09:24:19.247Z,100796.56
2022-10-23T09:27:21.512Z,100793.00
2022-10-23T09:30:33.640Z,100807.69
2022-10-23T09:33:37.319Z,100802.00
2022-10-23T09:36:50.443Z,100811.31
2022-10-23T09:40:16.022Z,100815.69
2022-10-23T09:43:21.838Z,100821.97
2022-10-23T09:46:25.726Z,100821.41
2022-10-23T09:49:30.180Z,100823.94
2022-10-23T09:52:36.231Z,100821.97
2022-10-23T09:55:39.425Z,100824.50
2022-10-23T09:58:59.416Z,100819.94
2022-10-23T10:02:04.718Z,100815.59
2022-10-23T10:05:33.031Z,100824.84
2022-10-23T10:08:46.203Z,100814.91
2022-10-23T10:11:59.421Z,100809.31
2022-10-23T10:15:40.712Z,100812.16
2022-10-23T10:18:51.293Z,100805.03
2022-10-23T10:22:16.957Z,100779.53
2022-10-23T10:25:27.241Z,100781.69
2022-10-23T10:28:54.625Z,100777.34
2022-10-23T10:32:50.127Z,100758.97
2022-10-23T10:36:31.043Z,100765.72
2022-10-23T10:39:39.791Z,100774.88
2022-10-23T10:43:10.000Z,100767.38
2022-10-23T10:46:40.308Z,100768.00
2022-10-23T10:50:03.484Z,100766.06
2022-10-23T10:53:23.682Z,100758.44
2022-10-23T10:56:28.464Z,100755.16
2022-10-23T10:59:32.489Z,100747.03
2022-10-23T11:02:46.856Z,100749.72
2022-10-23T11:05:50.730Z,100736.53
2022-10-23T11:08:57.960Z,100723.19
2022-10-23T11:12:21.945Z,100720.25
2022-10-23T11:15:28.860Z,100726.19
2022-10-23T11:18:31.335Z,100716.91
2022-10-23T11:21:40.945Z,100715.78
2022-10-23T11:24:49.088Z,100711.09
2022-10-23T11:28:03.317Z,100714.38
2022-10-23T11:31:40.003Z,100707.78
2022-10-23T11:34:45.208Z,100707.06
2022-10-23T11:38:01.156Z,100706.88
2022-10-23T11:41:07.567Z,100700.63
2022-10-23T11:44:26.820Z,100711.53
2022-10-23T11:47:40.158Z,100702.13
2022-10-23T11:50:46.204Z,100705.91
2022-10-23T11:53:48.527Z,100691.56
2022-10-23T11:57:09.284Z,100699.22
2022-10-23T12:00:22.272Z,100703.03
2022-10-23T12:03:39.153Z,100701.94
2022-10-23T12:06:42.262Z,100701.41
2022-10-23T12:09:47.022Z,100687.53
2022-10-23T12:13:00.354Z,100692.41
2022-10-23T12:16:03.018Z,100682.94
2022-10-23T12:19:19.722Z,100689.03
2022-10-23T12:22:25.006Z,100670.09
2022-10-23T12:25:47.011Z,100668.28
2022-10-23T12:28:52.395Z,100660.13
2022-10-23T12:32:04.143Z,100655.44
2022-10-23T12:35:47.833Z,100663.69
2022-10-23T12:38:50.270Z,100654.72
2022-10-23T12:41:52.575Z,100662.50
2022-10-23T12:45:03.433Z,100652.28
2022-10-23T12:48:05.760Z,100640.16
2022-10-23T12:51:22.925Z,100643.38
2022-10-23T12:54:25.697Z,100631.47
2022-10-23T12:57:30.332Z,100628.13
2022-10-23T13:00:32.694Z,100626.91
2022-10-23T13:03:35.370Z,100617.03
2022-10-23T13:06:38.896Z,100619.41
2022-10-23T13:09:42.694Z,100613.72
2022-10-23T13:13:07.397Z,100614.97
2022-10-23T13:16:24.015Z,100615.00
2022-10-23T13:19:27.571Z,100612.84
2022-10-23T13:22:29.868Z,100609.31
2022-10-23T13:25:33.415Z,100602.59
2022-10-23T13:28:44.514Z,100607.47
2022-10-23T13:31:47.217Z,100601.72
2022-10-23T13:35:10.210Z,100596.56
2022-10-23T13:38:28.364Z,100586.59
2022-10-23T13:41:42.669Z,100588.47
2022-10-23T13:44:44.967Z,100592.72
2022-10-23T13:47:47.461Z,100586.25
2022-10-23T13:50:49.812Z,100580.06
2022-10-23T13:53:52.484Z,100580.34
2022-10-23T13:56:55.622Z,100581.44
2022-10-23T13:59:57.890Z,100570.66
2022-10-23T14:03:00.214Z,100564.41
2022-10-23T14:06:02.535Z,100571.69
2022-10-23T14:09:06.744Z,100571.38
2022-10-23T14:12:09.044Z,100566.84
2022-10-23T14:15:11.765Z,100561.97
2022-10-23T14:18:14.046Z,100547.94
2022-10-23T14:21:20.176Z,100553.06
2022-10-23T14:24:22.491Z,100549.59
2022-10-23T14:27:24.860Z,100547.66
2022-10-23T14:30:27.141Z,100539.84
2022-10-23T14:33:29.449Z,100544.13
2022-10-23T14:36:38.845Z,100536.34
2022-10-23T14:39:52.292Z,100541.97
2022-10-23T14:42:54.565Z,100543.56
2022-10-23T14:45:56.860Z,100536.00
2022-10-23T14:49:02.349Z,100535.72
2022-10-23T14:52:05.070Z,100530.03
2022-10-23T14:55:07.813Z,100525.19
2022-10-23T14:58:10.132Z,100514.72
2022-10-23T15:01:12.660Z,100520.38
2022-10-23T15:04:15.473Z,100516.03
2022-10-23T15:07:17.779Z,100516.22
2022-10-23T15:10:20.062Z,100525.16
2022-10-23T15:13:22.370Z,100516.50
2022-10-23T15:16:24.666Z,100515.41
2022-10-23T15:19:27.053Z,100514.59
2022-10-23T15:22:29.371Z,100494.47
2022-10-23T15:25:31.740Z,100472.56
2022-10-23T15:28:34.171Z,100479.06
2022-10-23T15:31:40.918Z,100476.88
2022-10-23T15:34:43.310Z,100486.28
2022-10-23T15:37:45.841Z,100487.31
2022-10-23T15:40:48.732Z,100497.88
2022-10-23T15:43:51.984Z,100500.28
2022-10-23T15:46:56.998Z,100509.41
2022-10-23T15:49:59.312Z,100503.22
2022-10-23T15:53:01.676Z,100510.44
2022-10-23T15:56:04.171Z,100500.19
2022-10-23T15:59:06.453Z,100499.88
2022-10-23T16:02:10.865Z,100511.53
2022-10-23T16:05:13.247Z,100510.44
2022-10-23T16:08:15.488Z,100500.19
2022-10-23T16:11:20.795Z,100515.28
2022-10-23T16:14:23.057Z,100512.84
2022-10-23T16:17:25.322Z,100523.59
2022-10-23T16:20:27.614Z,100528.19
2022-10-23T16:23:30.013Z,100529.78
2022-10-23T16:26:32.529Z,100515.25
2022-10-23T16:29:34.823Z,100519.00
2022-10-23T16:32:37.092Z,100528.75
2022-10-23T16:35:39.642Z,100547.31
2022-10-23T16:38:50.274Z,100549.66
2022-10-23T16:41:52.555Z,100549.63
2022-10-23T16:44:56.773Z,100558.19
2022-10-23T16:47:59.026Z,100559.59
2022-10-23T16:51:05.811Z,100558.22
2022-10-23T16:54:08.202Z,100556.78
2022-10-23T16:57:10.389Z,100550.63
2022-10-23T17:00:12.869Z,100548.19
2022-10-23T17:03:15.224Z,100547.94
2022-10-23T17:06:20.577Z,100564.00
2022-10-23T17:09:23.741Z,100573.19
2022-10-23T17:12:26.028Z,100578.03
2022-10-23T17:15:28.476Z,100588.19
2022-10-23T17:18:30.827Z,100581.69
2022-10-23T17:21:35.473Z,100577.38
2022-10-23T17:24:39.171Z,100569.34
2022-10-23T17:27:42.552Z,100563.34
2022-10-23T17:30:45.178Z,100570.91
2022-10-23T17:33:48.260Z,100570.06
2022-10-23T17:36:53.647Z,100560.13
2022-10-23T17:39:58.902Z,100555.63
2022-10-23T17:43:04.446Z,100564.94
2022-10-23T17:46:08.535Z,100555.22
2022-10-23T17:49:12.539Z,100562.69
2022-10-23T17:52:15.189Z,100550.56
2022-10-23T17:55:17.481Z,100537.94
2022-10-23T17:58:19.750Z,100534.78
2022-10-23T18:01:26.582Z,100534.97
2022-10-23T18:04:28.963Z,100537.91
2022-10-23T18:07:31.189Z,100531.75
2022-10-23T18:10:35.461Z,100542.19
2022-10-23T18:13:37.977Z,100542.09
2022-10-23T18:16:40.835Z,100538.91
2022-10-23T18:19:43.110Z,100536.47
2022-10-23T18:22:45.477Z,100534.03
2022-10-23T18:25:47.905Z,100544.34
2022-10-23T18:28:51.844Z,100534.06
2022-10-23T18:31:54.102Z,100545.56
2022-10-23T18:34:56.345Z,100539.16
2022-10-23T18:37:58.615Z,100538.53
2022-10-23T18:41:00.935Z,100543.66
2022-10-23T18:44:04.250Z,100550.72
2022-10-23T18:47:06.520Z,100544.84
2022-10-23T18:50:09.379Z,100528.19
2022-10-23T18:53:11.653Z,100527.56
2022-10-23T18:56:15.537Z,100535.44
2022-10-23T18:59:20.269Z,100541.38
2022-10-23T19:02:22.751Z,100532.13
2022-10-23T19:05:25.376Z,100536.75
2022-10-23T19:08:27.676Z,100534.03
2022-10-23T19:11:29.921Z,100529.66
2022-10-23T19:14:32.148Z,100535.31
2022-10-23T19:17:34.577Z,100533.22
2022-10-23T19:20:37.367Z,100538.28
2022-10-23T19:23:40.991Z,100538.53
2022-10-23T19:26:43.907Z,100545.28
2022-10-23T19:29:48.194Z,100530.66
2022-10-23T19:32:51.536Z,100533.34
2022-10-23T19:35:53.784Z,100539.59
2022-10-23T19:38:56.054Z,100543.13
2022-10-23T19:41:58.881Z,100541.41
2022-10-23T19:45:01.318Z,100540.97
2022-10-23T19:48:04.206Z,100534.78
2022-10-23T19:51:07.766Z,100545.28
2022-10-23T19:54:10.792Z,100535.13
2022-10-23T19:57:13.132Z,100531.44
2022-10-23T20:00:15.564Z,100529.22
2022-10-23T20:03:19.579Z,100536.22
2022-10-23T20:06:24.926Z,100533.31
2022-10-23T20:09:27.593Z,100546.97
2022-10-23T20:12:29.892Z,100545.69
2022-10-23T20:15:32.722Z,100551.41
2022-10-23T20:18:35.045Z,100555.97
2022-10-23T20:21:38.981Z,100552.72
2022-10-23T20:24:42.439Z,100540.81
2022-10-23T20:27:44.739Z,100543.19
2022-10-23T20:30:47.013Z,100538.09
2022-10-23T20:33:49.714Z,100534.56
2022-10-23T20:36:52.308Z,100536.75
2022-10-23T20:39:55.373Z,100526.00
2022-10-23T20:42:57.624Z,100513.63
2022-10-23T20:46:04.920Z,100519.75
2022-10-23T20:49:07.383Z,100523.28
2022-10-23T20:52:09.593Z,100510.25
2022-10-23T20:55:11.863Z,100502.78
2022-10-23T20:58:14.144Z,100494.94
2022-10-23T21:01:18.304Z,100504.88
2022-10-23T21:04:24.639Z,100498.63
2022-10-23T21:07:27.129Z,100491.59
2022-10-23T21:10:29.368Z,100493.72
2022-10-23T21:13:32.054Z,100493.72
2022-10-23T21:16:37.062Z,100497.47
2022-10-23T21:19:39.554Z,100498.53
2022-10-23T21:22:42.090Z,100485.38
2022-10-23T21:25:44.593Z,100476.66
2022-10-23T21:28:56.154Z,100482.25
2022-10-23T21:32:09.130Z,100486.41
2022-10-23T21:35:11.426Z,100487.03
2022-10-23T21:38:13.690Z,100490.97
2022-10-23T21:41:34.817Z,100494.59
2022-10-23T21:44:37.130Z,100485.47
2022-10-23T21:47:39.627Z,100498.91
2022-10-23T21:50:42.018Z,100498.72
2022-10-23T21:53:44.381Z,100502.53
2022-10-23T21:56:48.737Z,100503.63
2022-10-23T21:59:50.971Z,100493.88
2022-10-23T22:02:53.271Z,100486.97
2022-10-23T22:05:57.990Z,100485.84
2022-10-23T22:09:00.540Z,100488.78
2022-10-23T22:12:02.854Z,100488.78
2022-10-23T22:15:05.588Z,100492.28
2022-10-23T22:18:07.877Z,100498.22
2022-10-23T22:21:16.531Z,100490.16
2022-10-23T22:24:19.439Z,100496.09
2022-10-23T22:27:21.717Z,100494.47
2022-10-23T22:30:23.995Z,100491.84
2022-10-23T22:33:26.302Z,100491.66
2022-10-23T22:36:28.725Z,100497.75
2022-10-23T22:39:31.019Z,100499.16
2022-10-23T22:42:33.362Z,100493.69
2022-10-23T22:45:35.612Z,100482.13
2022-10-23T22:48:38.461Z,100496.75
2022-10-23T22:51:40.990Z,100488.31
2022-10-23T22:54:43.312Z,100499.06
2022-10-23T22:57:45.823Z,100495.97
2022-10-23T23:00:48.873Z,100489.69
2022-10-23T23:03:51.593Z,100483.22
2022-10-23T23:06:53.862Z,100472.66
2022-10-23T23:09:56.185Z,100476.34
2022-10-23T23:12:58.775Z,100468.66
2022-10-23T23:16:01.307Z,100486.72
2022-10-23T23:19:04.932Z,100477.53
2022-10-23T23:22:07.304Z,100470.25
2022-10-23T23:25:09.766Z,100470.50
2022-10-23T23:28:13.205Z,100467.56
2022-10-23T23:31:21.496Z,100477.31
2022-10-23T23:34:23.829Z,100481.94
2022-10-23T23:37:26.221Z,100483.25
2022-10-23T23:40:28.517Z,100474.69
2022-10-23T23:43:31.029Z,100485.78
2022-10-23T23:46:33.367Z,100467.69
2022-10-23T23:49:35.625Z,100463.50
2022-10-23T23:52:37.854Z,100461.72
2022-10-23T23:55:40.268Z,100460.78
2022-10-23T23:58:42.565Z,100461.38
